Hamburg, LA (71339)

7:01 AM CDT on July 25, 2014 (GMT -0500)
Spring Bayou (KLAMARKS3) Elev 52 ft | 31.15 °N, 91.99 °W | Change Station

Current weather conditions updated 1 minute ago

Clear
Clear
77.4 °F
Feels Like 79 °F
N
0.0
Wind Variable Wind from East
Gusts 0.0 mph

Today is forecast to be nearly the same temperature as yesterday.

Today
High -- | Low -- °F
--% Chance of Precip.
Yesterday
High -- | Low -- °F
Precip. -- in
6:20 AM 8:07 PM
Waning Crescent, 2% visible
Pressure 30.02 in
Visibility 8.0 miles
Clouds Clear
Heat Index 79 °F
Dew Point 77 °F
Humidity 99%
Rainfall 0.00 in
Snow Depth Not available.
UV 0 out of 12
Pollen 2.40 out of 12
Air Quality Not available.
Flu Activity Not available.
METAR KESF 251153Z AUTO 00000KT 8SM CLR 24/22 A3002 RMK AO2 SLP165 T02440222 10244 20233 53006

More Conditions Fewer Conditions

Pressure 30.02 in
Visibility 8.0 miles
Clouds Clear
Heat Index 79 °F
Dew Point 77 °F
Humidity 99%
Rainfall 0.00 in
Snow Depth Not available.
UV 0 out of 12
Pollen 2.40 out of 12
Air Quality Not available.
Flu Activity Not available.
METAR KESF 251153Z AUTO 00000KT 8SM CLR 24/22 A3002 RMK AO2 SLP165 T02440222 10244 20233 53006

More Conditions Fewer Conditions

10-Day Weather Forecast

Almanac

Astronomy

Jul. 25, 2014 Rise Set
Actual Time 6:20 AM CDT 8:07 PM CDT
Civil Twilight 5:53 AM CDT 8:34 PM CDT
Nautical Twilight 5:21 AM CDT 9:06 PM CDT
Astronomical Twilight 4:47 AM CDT 9:40 PM CDT
Moon 5:17 AM CDT 7:08 PM CDT
Length of Visible Light 14h 40m
Length of Day
13h 47m
Tomorrow will be 1m 14s shorter.
Waning Crescent, 2% of the Moon is Illuminated
Today
Waning Crescent
Jul 26
New
Aug 3
First Quarter
Aug 10
Full
Aug 17
Last Quarter

Today's Extremes

State Highs State Lows

Community

WunderPhotos

Upload Photos

1,737,299 photos uploaded!

Nearby

Snow Depth

Station Depth Elevation
No new snow has been reported.

Earthquake Activity

City Distance Mag. Time & Date
No recent earthquake activity has been reported nearby.
Minimum magnitude displayed is 2.5.

Coastal Water Temperatures

Place Temperature
No Stations Reporting

Nearby Weather Stations

Station Location Temp. Heat Index Dew Point Humidity Wind Precip. Elev Updated Type
Spring Bayou, Marksville, LA 77.4 °F 79 °F 77 °F 99% East  at  0.0 mph 0.00 in / hr 52 ft 6:59 AM CDT Normal
APO - Cottonport, Cottonport, LA 75.4 °F 75 °F 72 °F 90% NE  at  2.7 mph 0.00 in / hr 66 ft 7:01 AM CDT Rapid Fire

Show More Stations Show Fewer Stations